sensor_id;sensor_type;location;lat;lon;timestamp;pressure;altitude;pressure_sealevel;temperature;humidity
57801;BME280;43627;42.728;23.256;2023-04-26T00:00:29;94050.91;;;8.20;100.00
57801;BME280;43627;42.728;23.256;2023-04-26T00:02:57;94051.38;;;8.19;100.00
57801;BME280;43627;42.728;23.256;2023-04-26T00:05:25;94060.28;;;8.19;100.00
57801;BME280;43627;42.728;23.256;2023-04-26T00:07:52;94046.91;;;8.16;100.00
57801;BME280;43627;42.728;23.256;2023-04-26T00:10:19;94036.41;;;8.09;100.00
57801;BME280;43627;42.728;23.256;2023-04-26T00:12:46;94038.38;;;8.08;100.00
57801;BME280;43627;42.728;23.256;2023-04-26T00:15:13;94030.88;;;8.03;100.00
57801;BME280;43627;42.728;23.256;2023-04-26T00:17:40;94025.44;;;8.03;100.00
57801;BME280;43627;42.728;23.256;2023-04-26T00:20:09;94027.50;;;7.93;100.00
57801;BME280;43627;42.728;23.256;2023-04-26T00:22:37;94028.16;;;7.88;100.00
57801;BME280;43627;42.728;23.256;2023-04-26T00:25:04;94029.38;;;7.87;100.00
57801;BME280;43627;42.728;23.256;2023-04-26T00:27:31;94024.38;;;7.86;100.00
57801;BME280;43627;42.728;23.256;2023-04-26T00:29:57;94028.63;;;7.87;100.00
57801;BME280;43627;42.728;23.256;2023-04-26T00:32:24;94025.69;;;7.76;100.00
57801;BME280;43627;42.728;23.256;2023-04-26T00:34:51;94023.91;;;7.72;100.00
57801;BME280;43627;42.728;23.256;2023-04-26T00:37:18;94020.00;;;7.73;100.00
57801;BME280;43627;42.728;23.256;2023-04-26T00:39:44;94015.03;;;7.72;100.00
57801;BME280;43627;42.728;23.256;2023-04-26T00:42:12;94018.22;;;7.70;100.00
57801;BME280;43627;42.728;23.256;2023-04-26T00:44:38;94017.19;;;7.68;100.00
57801;BME280;43627;42.728;23.256;2023-04-26T00:47:05;94019.72;;;7.71;100.00
57801;BME280;43627;42.728;23.256;2023-04-26T00:49:32;94018.09;;;7.65;100.00
57801;BME280;43627;42.728;23.256;2023-04-26T00:51:59;94015.31;;;7.59;100.00
57801;BME280;43627;42.728;23.256;2023-04-26T00:54:26;94022.28;;;7.51;100.00
57801;BME280;43627;42.728;23.256;2023-04-26T00:56:54;94012.16;;;7.37;100.00
57801;BME280;43627;42.728;23.256;2023-04-26T00:59:21;94017.47;;;7.31;100.00
57801;BME280;43627;42.728;23.256;2023-04-26T01:01:47;94013.38;;;7.36;100.00
57801;BME280;43627;42.728;23.256;2023-04-26T01:04:14;94026.28;;;7.41;100.00
57801;BME280;43627;42.728;23.256;2023-04-26T01:06:42;94022.09;;;7.40;100.00
57801;BME280;43627;42.728;23.256;2023-04-26T01:09:09;94024.22;;;7.36;100.00
57801;BME280;43627;42.728;23.256;2023-04-26T01:11:41;94026.75;;;7.39;100.00
57801;BME280;43627;42.728;23.256;2023-04-26T01:14:09;94033.63;;;7.26;100.00
57801;BME280;43627;42.728;23.256;2023-04-26T01:16:36;94036.81;;;7.24;100.00
57801;BME280;43627;42.728;23.256;2023-04-26T01:19:08;94030.69;;;7.14;100.00
57801;BME280;43627;42.728;23.256;2023-04-26T01:21:36;94023.88;;;7.19;100.00
57801;BME280;43627;42.728;23.256;2023-04-26T01:24:04;94006.69;;;7.22;100.00
57801;BME280;43627;42.728;23.256;2023-04-26T01:26:31;93999.25;;;7.32;100.00
57801;BME280;43627;42.728;23.256;2023-04-26T01:28:58;94017.75;;;7.33;100.00
57801;BME280;43627;42.728;23.256;2023-04-26T01:31:24;94028.88;;;7.35;100.00
57801;BME280;43627;42.728;23.256;2023-04-26T01:33:51;94017.53;;;7.22;100.00
57801;BME280;43627;42.728;23.256;2023-04-26T01:36:18;94033.00;;;7.31;100.00
57801;BME280;43627;42.728;23.256;2023-04-26T01:38:45;94030.28;;;7.31;100.00
57801;BME280;43627;42.728;23.256;2023-04-26T01:41:11;94011.47;;;7.27;100.00
57801;BME280;43627;42.728;23.256;2023-04-26T01:43:38;94023.25;;;7.24;100.00
57801;BME280;43627;42.728;23.256;2023-04-26T01:46:05;94024.28;;;7.27;100.00
57801;BME280;43627;42.728;23.256;2023-04-26T01:48:32;94036.53;;;7.22;100.00
57801;BME280;43627;42.728;23.256;2023-04-26T01:50:58;94038.47;;;7.22;100.00
57801;BME280;43627;42.728;23.256;2023-04-26T01:53:25;94043.78;;;7.16;100.00
57801;BME280;43627;42.728;23.256;2023-04-26T01:55:52;94032.38;;;7.12;100.00
57801;BME280;43627;42.728;23.256;2023-04-26T01:58:18;94025.09;;;7.18;100.00
57801;BME280;43627;42.728;23.256;2023-04-26T02:00:45;94024.81;;;7.16;100.00
57801;BME280;43627;42.728;23.256;2023-04-26T02:03:12;94021.91;;;7.20;100.00
57801;BME280;43627;42.728;23.256;2023-04-26T02:05:39;94007.59;;;7.19;100.00
57801;BME280;43627;42.728;23.256;2023-04-26T02:08:06;94006.16;;;7.09;100.00
57801;BME280;43627;42.728;23.256;2023-04-26T02:10:32;94011.22;;;7.01;100.00
57801;BME280;43627;42.728;23.256;2023-04-26T02:12:59;94007.78;;;6.92;100.00
57801;BME280;43627;42.728;23.256;2023-04-26T02:15:26;93995.75;;;6.93;100.00
57801;BME280;43627;42.728;23.256;2023-04-26T02:17:52;93998.34;;;6.87;100.00
57801;BME280;43627;42.728;23.256;2023-04-26T02:20:21;93989.94;;;6.85;100.00
57801;BME280;43627;42.728;23.256;2023-04-26T02:22:47;93987.03;;;6.88;100.00
57801;BME280;43627;42.728;23.256;2023-04-26T02:25:14;93990.91;;;6.97;100.00
57801;BME280;43627;42.728;23.256;2023-04-26T02:27:41;93979.66;;;6.89;100.00
57801;BME280;43627;42.728;23.256;2023-04-26T02:30:08;93999.59;;;7.01;100.00
57801;BME280;43627;42.728;23.256;2023-04-26T02:32:35;93993.00;;;7.02;100.00
57801;BME280;43627;42.728;23.256;2023-04-26T02:35:02;94007.72;;;7.01;100.00
57801;BME280;43627;42.728;23.256;2023-04-26T02:37:28;94012.19;;;7.13;100.00
57801;BME280;43627;42.728;23.256;2023-04-26T02:39:55;94012.19;;;7.13;100.00
57801;BME280;43627;42.728;23.256;2023-04-26T02:42:22;94004.56;;;7.02;100.00
57801;BME280;43627;42.728;23.256;2023-04-26T02:44:49;94017.59;;;7.13;100.00
57801;BME280;43627;42.728;23.256;2023-04-26T02:47:16;94001.34;;;7.13;100.00
57801;BME280;43627;42.728;23.256;2023-04-26T02:49:42;94005.28;;;7.12;100.00
57801;BME280;43627;42.728;23.256;2023-04-26T02:52:09;94004.47;;;7.21;100.00
57801;BME280;43627;42.728;23.256;2023-04-26T02:54:36;93998.56;;;7.22;100.00
57801;BME280;43627;42.728;23.256;2023-04-26T02:57:03;93993.78;;;7.17;100.00
57801;BME280;43627;42.728;23.256;2023-04-26T02:59:29;93990.38;;;7.31;100.00
57801;BME280;43627;42.728;23.256;2023-04-26T03:01:56;93988.63;;;7.19;100.00
57801;BME280;43627;42.728;23.256;2023-04-26T03:04:23;93985.22;;;7.09;100.00
57801;BME280;43627;42.728;23.256;2023-04-26T03:06:50;93977.47;;;7.02;100.00
57801;BME280;43627;42.728;23.256;2023-04-26T03:09:16;93986.72;;;7.10;100.00
57801;BME280;43627;42.728;23.256;2023-04-26T03:11:43;93972.22;;;6.99;100.00
57801;BME280;43627;42.728;23.256;2023-04-26T03:14:10;93986.50;;;6.99;100.00
57801;BME280;43627;42.728;23.256;2023-04-26T03:16:40;93995.97;;;7.04;100.00
57801;BME280;43627;42.728;23.256;2023-04-26T03:19:08;93980.53;;;6.95;100.00
57801;BME280;43627;42.728;23.256;2023-04-26T03:21:35;93981.56;;;6.98;100.00
57801;BME280;43627;42.728;23.256;2023-04-26T03:24:02;93985.75;;;6.99;100.00
57801;BME280;43627;42.728;23.256;2023-04-26T03:26:28;93985.75;;;6.99;100.00
57801;BME280;43627;42.728;23.256;2023-04-26T03:28:55;93979.25;;;7.05;100.00
57801;BME280;43627;42.728;23.256;2023-04-26T03:31:22;93983.28;;;7.10;100.00
57801;BME280;43627;42.728;23.256;2023-04-26T03:33:50;93980.56;;;7.10;100.00
57801;BME280;43627;42.728;23.256;2023-04-26T03:36:17;93979.94;;;7.15;100.00
57801;BME280;43627;42.728;23.256;2023-04-26T03:38:43;93974.16;;;7.22;100.00
57801;BME280;43627;42.728;23.256;2023-04-26T03:41:11;93989.31;;;7.29;100.00
57801;BME280;43627;42.728;23.256;2023-04-26T03:43:37;94002.53;;;7.36;100.00
57801;BME280;43627;42.728;23.256;2023-04-26T03:46:04;93989.63;;;7.31;100.00
57801;BME280;43627;42.728;23.256;2023-04-26T03:48:31;93991.59;;;7.30;100.00
57801;BME280;43627;42.728;23.256;2023-04-26T03:50:58;93990.47;;;7.37;100.00
57801;BME280;43627;42.728;23.256;2023-04-26T03:53:25;94016.88;;;7.27;100.00
57801;BME280;43627;42.728;23.256;2023-04-26T03:55:51;94018.78;;;7.36;100.00
57801;BME280;43627;42.728;23.256;2023-04-26T03:58:18;94026.50;;;7.52;100.00
57801;BME280;43627;42.728;23.256;2023-04-26T04:00:45;94017.53;;;7.61;100.00
57801;BME280;43627;42.728;23.256;2023-04-26T04:03:11;94019.63;;;7.81;100.00
57801;BME280;43627;42.728;23.256;2023-04-26T04:05:38;94019.94;;;7.97;100.00
57801;BME280;43627;42.728;23.256;2023-04-26T04:08:05;93998.22;;;7.97;100.00
57801;BME280;43627;42.728;23.256;2023-04-26T04:10:32;94028.34;;;8.14;100.00
57801;BME280;43627;42.728;23.256;2023-04-26T04:12:59;94032.56;;;8.15;100.00
57801;BME280;43627;42.728;23.256;2023-04-26T04:15:25;94029.38;;;8.31;100.00
57801;BME280;43627;42.728;23.256;2023-04-26T04:17:52;94036.50;;;8.29;100.00
57801;BME280;43627;42.728;23.256;2023-04-26T04:20:19;94045.00;;;8.22;100.00
57801;BME280;43627;42.728;23.256;2023-04-26T04:22:47;94029.28;;;8.26;100.00
57801;BME280;43627;42.728;23.256;2023-04-26T04:25:13;94038.72;;;8.30;100.00
57801;BME280;43627;42.728;23.256;2023-04-26T04:27:41;94025.16;;;8.30;100.00
57801;BME280;43627;42.728;23.256;2023-04-26T04:30:08;94034.44;;;8.53;100.00
57801;BME280;43627;42.728;23.256;2023-04-26T04:32:35;94033.94;;;8.70;100.00
57801;BME280;43627;42.728;23.256;2023-04-26T04:35:02;94034.88;;;8.81;100.00
57801;BME280;43627;42.728;23.256;2023-04-26T04:37:29;94042.19;;;9.10;100.00
57801;BME280;43627;42.728;23.256;2023-04-26T04:39:59;94041.44;;;9.30;100.00
57801;BME280;43627;42.728;23.256;2023-04-26T04:42:26;94046.63;;;9.49;100.00
57801;BME280;43627;42.728;23.256;2023-04-26T04:44:53;94057.97;;;9.67;100.00
57801;BME280;43627;42.728;23.256;2023-04-26T04:47:20;94050.25;;;9.86;100.00
57801;BME280;43627;42.728;23.256;2023-04-26T04:49:47;94054.72;;;10.36;100.00
57801;BME280;43627;42.728;23.256;2023-04-26T04:52:13;94049.53;;;10.69;100.00
57801;BME280;43627;42.728;23.256;2023-04-26T04:54:44;94051.53;;;11.06;100.00
57801;BME280;43627;42.728;23.256;2023-04-26T04:57:10;94041.97;;;11.27;100.00
57801;BME280;43627;42.728;23.256;2023-04-26T04:59:37;94053.84;;;11.72;100.00
57801;BME280;43627;42.728;23.256;2023-04-26T05:02:04;94051.41;;;11.80;100.00
57801;BME280;43627;42.728;23.256;2023-04-26T05:04:31;94051.63;;;11.77;100.00
57801;BME280;43627;42.728;23.256;2023-04-26T05:07:00;94043.63;;;11.62;100.00
57801;BME280;43627;42.728;23.256;2023-04-26T05:09:27;94040.91;;;11.13;100.00
57801;BME280;43627;42.728;23.256;2023-04-26T05:11:54;94036.06;;;10.92;100.00
57801;BME280;43627;42.728;23.256;2023-04-26T05:14:20;94045.63;;;10.76;100.00
57801;BME280;43627;42.728;23.256;2023-04-26T05:16:47;94044.44;;;10.82;100.00
57801;BME280;43627;42.728;23.256;2023-04-26T05:19:14;94047.13;;;10.77;100.00
57801;BME280;43627;42.728;23.256;2023-04-26T05:21:41;94032.56;;;10.85;100.00
57801;BME280;43627;42.728;23.256;2023-04-26T05:24:07;94052.88;;;10.84;100.00
57801;BME280;43627;42.728;23.256;2023-04-26T05:26:34;94047.31;;;11.05;100.00
57801;BME280;43627;42.728;23.256;2023-04-26T05:29:02;94052.13;;;11.21;100.00
57801;BME280;43627;42.728;23.256;2023-04-26T05:31:28;94052.66;;;11.31;100.00
57801;BME280;43627;42.728;23.256;2023-04-26T05:33:55;94050.84;;;11.70;100.00
57801;BME280;43627;42.728;23.256;2023-04-26T05:36:22;94052.44;;;11.88;100.00
57801;BME280;43627;42.728;23.256;2023-04-26T05:38:49;94055.22;;;12.16;100.00
57801;BME280;43627;42.728;23.256;2023-04-26T05:41:15;94061.50;;;12.56;100.00
57801;BME280;43627;42.728;23.256;2023-04-26T05:43:42;94063.25;;;12.70;100.00
57801;BME280;43627;42.728;23.256;2023-04-26T05:46:09;94067.47;;;12.94;100.00
57801;BME280;43627;42.728;23.256;2023-04-26T05:48:36;94067.47;;;12.94;100.00
57801;BME280;43627;42.728;23.256;2023-04-26T05:51:02;94066.72;;;12.93;100.00
57801;BME280;43627;42.728;23.256;2023-04-26T05:53:29;94076.94;;;12.98;100.00
57801;BME280;43627;42.728;23.256;2023-04-26T05:55:56;94073.91;;;13.07;100.00
57801;BME280;43627;42.728;23.256;2023-04-26T05:58:22;94074.16;;;13.15;100.00
57801;BME280;43627;42.728;23.256;2023-04-26T06:00:49;94072.69;;;12.86;100.00
57801;BME280;43627;42.728;23.256;2023-04-26T06:03:16;94081.13;;;12.43;100.00
57801;BME280;43627;42.728;23.256;2023-04-26T06:05:43;94079.81;;;12.22;100.00
57801;BME280;43627;42.728;23.256;2023-04-26T06:08:10;94077.13;;;12.33;100.00
57801;BME280;43627;42.728;23.256;2023-04-26T06:10:36;94075.16;;;12.50;100.00
57801;BME280;43627;42.728;23.256;2023-04-26T06:13:03;94078.38;;;12.43;100.00
57801;BME280;43627;42.728;23.256;2023-04-26T06:15:30;94086.06;;;12.39;100.00
57801;BME280;43627;42.728;23.256;2023-04-26T06:17:57;94090.34;;;12.51;100.00
57801;BME280;43627;42.728;23.256;2023-04-26T06:20:24;94069.44;;;12.76;100.00
57801;BME280;43627;42.728;23.256;2023-04-26T06:22:51;94078.41;;;12.99;100.00
57801;BME280;43627;42.728;23.256;2023-04-26T06:25:18;94093.56;;;12.67;100.00
57801;BME280;43627;42.728;23.256;2023-04-26T06:27:45;94095.06;;;12.51;100.00
57801;BME280;43627;42.728;23.256;2023-04-26T06:30:12;94093.06;;;12.68;100.00
57801;BME280;43627;42.728;23.256;2023-04-26T06:32:39;94089.56;;;12.45;100.00
57801;BME280;43627;42.728;23.256;2023-04-26T06:35:07;94099.75;;;12.45;99.90
57801;BME280;43627;42.728;23.256;2023-04-26T06:37:34;94089.50;;;12.06;100.00
57801;BME280;43627;42.728;23.256;2023-04-26T06:40:01;94080.00;;;11.90;100.00
57801;BME280;43627;42.728;23.256;2023-04-26T06:42:27;94095.94;;;11.55;100.00
57801;BME280;43627;42.728;23.256;2023-04-26T06:44:54;94093.16;;;11.43;100.00
57801;BME280;43627;42.728;23.256;2023-04-26T06:47:21;94095.56;;;11.79;100.00
57801;BME280;43627;42.728;23.256;2023-04-26T06:49:48;94094.28;;;11.74;100.00
57801;BME280;43627;42.728;23.256;2023-04-26T06:52:14;94096.06;;;11.77;100.00
57801;BME280;43627;42.728;23.256;2023-04-26T06:54:41;94095.34;;;11.82;100.00
57801;BME280;43627;42.728;23.256;2023-04-26T06:57:21;94068.75;;;11.77;100.00
57801;BME280;43627;42.728;23.256;2023-04-26T06:59:48;94094.09;;;11.29;100.00
57801;BME280;43627;42.728;23.256;2023-04-26T07:02:15;94091.44;;;11.46;100.00
57801;BME280;43627;42.728;23.256;2023-04-26T07:04:41;94089.00;;;11.54;100.00
57801;BME280;43627;42.728;23.256;2023-04-26T07:07:09;94081.31;;;11.52;100.00
57801;BME280;43627;42.728;23.256;2023-04-26T07:09:39;94095.03;;;11.74;100.00
57801;BME280;43627;42.728;23.256;2023-04-26T07:12:06;94092.97;;;11.53;100.00
57801;BME280;43627;42.728;23.256;2023-04-26T07:14:33;94086.53;;;11.56;100.00
57801;BME280;43627;42.728;23.256;2023-04-26T07:17:03;94090.06;;;11.73;100.00
57801;BME280;43627;42.728;23.256;2023-04-26T07:19:29;94086.31;;;12.30;100.00
57801;BME280;43627;42.728;23.256;2023-04-26T07:21:56;94093.03;;;12.23;100.00
57801;BME280;43627;42.728;23.256;2023-04-26T07:24:23;94096.75;;;12.26;95.58
57801;BME280;43627;42.728;23.256;2023-04-26T07:26:50;94101.00;;;12.33;89.40
57801;BME280;43627;42.728;23.256;2023-04-26T07:29:16;94094.69;;;11.98;86.79
57801;BME280;43627;42.728;23.256;2023-04-26T07:31:44;94094.41;;;11.85;90.10
57801;BME280;43627;42.728;23.256;2023-04-26T07:34:11;94087.00;;;12.08;91.65
57801;BME280;43627;42.728;23.256;2023-04-26T07:36:38;94097.38;;;11.93;88.19
57801;BME280;43627;42.728;23.256;2023-04-26T07:39:05;94113.31;;;11.52;89.93
57801;BME280;43627;42.728;23.256;2023-04-26T07:41:34;94114.81;;;11.15;86.17
57801;BME280;43627;42.728;23.256;2023-04-26T07:44:01;94117.13;;;11.23;88.01
57801;BME280;43627;42.728;23.256;2023-04-26T07:46:28;94113.50;;;11.00;88.83
57801;BME280;43627;42.728;23.256;2023-04-26T07:48:54;94108.28;;;10.70;90.35
57801;BME280;43627;42.728;23.256;2023-04-26T07:51:21;94122.28;;;10.83;92.38
57801;BME280;43627;42.728;23.256;2023-04-26T07:53:48;94108.06;;;10.74;93.87
57801;BME280;43627;42.728;23.256;2023-04-26T07:56:14;94114.09;;;10.83;91.37
57801;BME280;43627;42.728;23.256;2023-04-26T07:58:41;94119.41;;;10.67;89.73
57801;BME280;43627;42.728;23.256;2023-04-26T08:01:08;94125.50;;;10.56;95.78
57801;BME280;43627;42.728;23.256;2023-04-26T08:03:37;94116.84;;;10.57;94.79
57801;BME280;43627;42.728;23.256;2023-04-26T08:06:03;94109.25;;;10.67;95.64
57801;BME280;43627;42.728;23.256;2023-04-26T08:08:31;94104.50;;;10.94;91.19
57801;BME280;43627;42.728;23.256;2023-04-26T08:10:58;94099.47;;;11.18;93.47
57801;BME280;43627;42.728;23.256;2023-04-26T08:13:25;94109.41;;;11.21;87.37
57801;BME280;43627;42.728;23.256;2023-04-26T08:15:54;94108.69;;;11.26;89.52
57801;BME280;43627;42.728;23.256;2023-04-26T08:18:21;94110.28;;;11.44;81.29
57801;BME280;43627;42.728;23.256;2023-04-26T08:20:48;94113.38;;;11.63;82.88
57801;BME280;43627;42.728;23.256;2023-04-26T08:23:15;94111.53;;;11.86;81.94
57801;BME280;43627;42.728;23.256;2023-04-26T08:25:41;94095.31;;;11.77;80.41
57801;BME280;43627;42.728;23.256;2023-04-26T08:28:08;94112.28;;;11.86;79.84
57801;BME280;43627;42.728;23.256;2023-04-26T08:30:35;94093.94;;;11.98;75.55
57801;BME280;43627;42.728;23.256;2023-04-26T08:33:02;94107.88;;;12.06;74.33
57801;BME280;43627;42.728;23.256;2023-04-26T08:35:29;94108.66;;;12.28;72.03
57801;BME280;43627;42.728;23.256;2023-04-26T08:37:55;94104.44;;;12.27;72.96
57801;BME280;43627;42.728;23.256;2023-04-26T08:40:23;94100.44;;;12.17;72.22
57801;BME280;43627;42.728;23.256;2023-04-26T08:42:51;94104.00;;;12.51;72.33
57801;BME280;43627;42.728;23.256;2023-04-26T08:45:20;94103.75;;;12.55;67.48
57801;BME280;43627;42.728;23.256;2023-04-26T08:48:03;94110.72;;;12.62;68.05
57801;BME280;43627;42.728;23.256;2023-04-26T08:50:33;94100.50;;;12.34;71.18
57801;BME280;43627;42.728;23.256;2023-04-26T08:53:01;94114.44;;;12.42;68.84
57801;BME280;43627;42.728;23.256;2023-04-26T08:55:29;94110.44;;;12.48;69.55
57801;BME280;43627;42.728;23.256;2023-04-26T08:57:56;94112.84;;;12.13;67.60
57801;BME280;43627;42.728;23.256;2023-04-26T09:00:23;94112.63;;;12.22;68.50
57801;BME280;43627;42.728;23.256;2023-04-26T09:02:51;94105.19;;;12.28;68.46
57801;BME280;43627;42.728;23.256;2023-04-26T09:05:19;94107.69;;;12.37;69.73
57801;BME280;43627;42.728;23.256;2023-04-26T09:08:01;94090.06;;;12.49;63.62
57801;BME280;43627;42.728;23.256;2023-04-26T09:10:29;94114.41;;;12.36;62.68
57801;BME280;43627;42.728;23.256;2023-04-26T09:12:57;94118.56;;;12.09;66.14
57801;BME280;43627;42.728;23.256;2023-04-26T09:15:25;94113.91;;;12.38;67.16
57801;BME280;43627;42.728;23.256;2023-04-26T09:17:53;94116.94;;;12.56;65.45
57801;BME280;43627;42.728;23.256;2023-04-26T09:22:52;94116.69;;;12.54;68.33
57801;BME280;43627;42.728;23.256;2023-04-26T09:25:27;94120.66;;;12.65;61.65
57801;BME280;43627;42.728;23.256;2023-04-26T09:27:55;94123.19;;;12.79;62.47
57801;BME280;43627;42.728;23.256;2023-04-26T09:30:22;94129.63;;;12.87;61.42
57801;BME280;43627;42.728;23.256;2023-04-26T09:33:00;94124.94;;;12.99;60.48
57801;BME280;43627;42.728;23.256;2023-04-26T09:35:36;94116.22;;;12.95;59.08
57801;BME280;43627;42.728;23.256;2023-04-26T09:40:43;94121.41;;;13.15;58.22
57801;BME280;43627;42.728;23.256;2023-04-26T09:43:17;94129.16;;;13.39;57.13
57801;BME280;43627;42.728;23.256;2023-04-26T09:45:49;94126.91;;;13.38;53.37
57801;BME280;43627;42.728;23.256;2023-04-26T09:50:51;94122.91;;;13.44;54.16
57801;BME280;43627;42.728;23.256;2023-04-26T09:53:37;94110.53;;;14.01;53.94
57801;BME280;43627;42.728;23.256;2023-04-26T09:56:14;94110.09;;;14.39;51.14
57801;BME280;43627;42.728;23.256;2023-04-26T10:01:15;94110.31;;;13.99;51.38
57801;BME280;43627;42.728;23.256;2023-04-26T10:03:44;94115.78;;;14.05;51.83
57801;BME280;43627;42.728;23.256;2023-04-26T10:06:11;94112.25;;;14.10;48.43
57801;BME280;43627;42.728;23.256;2023-04-26T10:08:38;94106.56;;;13.97;48.35
57801;BME280;43627;42.728;23.256;2023-04-26T10:11:05;94109.59;;;13.93;49.09
57801;BME280;43627;42.728;23.256;2023-04-26T10:13:38;94098.19;;;14.30;49.92
57801;BME280;43627;42.728;23.256;2023-04-26T10:16:05;94100.66;;;14.34;49.98
57801;BME280;43627;42.728;23.256;2023-04-26T10:18:32;94076.59;;;13.58;50.04
57801;BME280;43627;42.728;23.256;2023-04-26T10:21:15;94101.25;;;13.47;51.50
57801;BME280;43627;42.728;23.256;2023-04-26T10:23:46;94100.22;;;13.66;49.68
57801;BME280;43627;42.728;23.256;2023-04-26T10:26:52;94091.09;;;13.30;49.92
57801;BME280;43627;42.728;23.256;2023-04-26T10:29:22;94098.06;;;13.37;51.94
57801;BME280;43627;42.728;23.256;2023-04-26T10:34:29;94112.13;;;13.80;48.52
57801;BME280;43627;42.728;23.256;2023-04-26T10:37:07;94105.31;;;14.04;48.06
57801;BME280;43627;42.728;23.256;2023-04-26T10:39:35;94115.94;;;14.24;46.83
57801;BME280;43627;42.728;23.256;2023-04-26T10:42:23;94103.19;;;13.68;46.86
57801;BME280;43627;42.728;23.256;2023-04-26T10:44:56;94099.91;;;13.87;47.34
57801;BME280;43627;42.728;23.256;2023-04-26T10:47:34;94098.53;;;14.10;49.26
57801;BME280;43627;42.728;23.256;2023-04-26T10:52:32;94095.69;;;14.33;44.59
57801;BME280;43627;42.728;23.256;2023-04-26T10:54:59;94089.63;;;14.04;45.44
57801;BME280;43627;42.728;23.256;2023-04-26T10:57:46;94102.06;;;14.05;45.71
57801;BME280;43627;42.728;23.256;2023-04-26T11:00:40;94091.66;;;13.87;45.87
57801;BME280;43627;42.728;23.256;2023-04-26T11:03:09;94096.81;;;14.07;45.69
57801;BME280;43627;42.728;23.256;2023-04-26T11:10:39;94096.66;;;14.35;44.41
57801;BME280;43627;42.728;23.256;2023-04-26T11:13:06;94090.97;;;14.27;45.51
57801;BME280;43627;42.728;23.256;2023-04-26T11:15:34;94092.44;;;14.75;44.21
57801;BME280;43627;42.728;23.256;2023-04-26T11:18:02;94091.44;;;14.78;43.88
57801;BME280;43627;42.728;23.256;2023-04-26T11:20:30;94085.69;;;14.76;43.99
57801;BME280;43627;42.728;23.256;2023-04-26T11:22:58;94088.00;;;14.72;44.38
57801;BME280;43627;42.728;23.256;2023-04-26T11:25:28;94099.03;;;14.61;44.33
57801;BME280;43627;42.728;23.256;2023-04-26T11:27:58;94089.88;;;14.53;44.35
57801;BME280;43627;42.728;23.256;2023-04-26T11:30:27;94096.66;;;14.41;45.00
57801;BME280;43627;42.728;23.256;2023-04-26T11:32:54;94084.63;;;14.03;45.47
57801;BME280;43627;42.728;23.256;2023-04-26T11:35:22;94089.41;;;14.38;45.01
57801;BME280;43627;42.728;23.256;2023-04-26T11:37:50;94079.53;;;14.23;44.22
57801;BME280;43627;42.728;23.256;2023-04-26T11:40:18;94098.66;;;14.35;44.10
57801;BME280;43627;42.728;23.256;2023-04-26T11:42:44;94096.28;;;14.97;44.05
57801;BME280;43627;42.728;23.256;2023-04-26T11:45:14;94073.31;;;15.24;44.31
57801;BME280;43627;42.728;23.256;2023-04-26T11:47:43;94103.66;;;14.77;43.86
57801;BME280;43627;42.728;23.256;2023-04-26T11:50:10;94092.88;;;14.49;43.58
57801;BME280;43627;42.728;23.256;2023-04-26T11:52:37;94089.41;;;14.38;44.37
57801;BME280;43627;42.728;23.256;2023-04-26T11:55:05;94090.31;;;14.63;44.67
57801;BME280;43627;42.728;23.256;2023-04-26T11:57:34;94062.69;;;14.85;44.65
57801;BME280;43627;42.728;23.256;2023-04-26T12:00:12;94076.19;;;14.83;43.48
57801;BME280;43627;42.728;23.256;2023-04-26T12:02:46;94078.06;;;14.64;44.79
57801;BME280;43627;42.728;23.256;2023-04-26T12:07:53;94090.25;;;14.68;43.56
57801;BME280;43627;42.728;23.256;2023-04-26T12:10:38;94079.31;;;14.21;44.00
57801;BME280;43627;42.728;23.256;2023-04-26T12:13:05;94074.88;;;14.07;44.99
57801;BME280;43627;42.728;23.256;2023-04-26T12:15:32;94090.44;;;14.35;45.20
57801;BME280;43627;42.728;23.256;2023-04-26T12:18:05;94102.25;;;14.18;44.06
57801;BME280;43627;42.728;23.256;2023-04-26T12:20:33;94087.56;;;14.10;44.37
57801;BME280;43627;42.728;23.256;2023-04-26T12:25:28;94083.63;;;14.00;45.17
57801;BME280;43627;42.728;23.256;2023-04-26T12:27:55;94080.88;;;14.06;45.04
57801;BME280;43627;42.728;23.256;2023-04-26T12:30:22;94082.25;;;14.29;45.04
57801;BME280;43627;42.728;23.256;2023-04-26T12:32:49;94088.81;;;14.09;45.12
57801;BME280;43627;42.728;23.256;2023-04-26T12:35:15;94087.56;;;14.10;46.60
57801;BME280;43627;42.728;23.256;2023-04-26T12:37:42;94081.63;;;14.06;46.80
57801;BME280;43627;42.728;23.256;2023-04-26T12:40:10;94077.91;;;14.04;47.40
57801;BME280;43627;42.728;23.256;2023-04-26T12:42:37;94079.84;;;14.14;45.58
57801;BME280;43627;42.728;23.256;2023-04-26T12:45:04;94077.53;;;14.24;43.21
57801;BME280;43627;42.728;23.256;2023-04-26T12:47:31;94071.97;;;13.88;44.05
57801;BME280;43627;42.728;23.256;2023-04-26T12:49:58;94057.53;;;13.93;42.36
57801;BME280;43627;42.728;23.256;2023-04-26T12:52:26;94082.38;;;14.01;44.40
57801;BME280;43627;42.728;23.256;2023-04-26T12:54:53;94076.22;;;13.89;44.19
57801;BME280;43627;42.728;23.256;2023-04-26T12:57:20;94072.88;;;14.08;45.89
57801;BME280;43627;42.728;23.256;2023-04-26T12:59:47;94068.59;;;14.18;47.21
57801;BME280;43627;42.728;23.256;2023-04-26T13:02:14;94073.28;;;13.76;47.65
57801;BME280;43627;42.728;23.256;2023-04-26T13:04:41;94081.16;;;13.96;48.20
57801;BME280;43627;42.728;23.256;2023-04-26T13:07:08;94078.94;;;14.42;47.96
57801;BME280;43627;42.728;23.256;2023-04-26T13:09:34;94091.41;;;14.37;47.75
57801;BME280;43627;42.728;23.256;2023-04-26T13:12:01;94097.03;;;14.15;48.19
57801;BME280;43627;42.728;23.256;2023-04-26T13:14:28;94100.53;;;14.15;45.62
57801;BME280;43627;42.728;23.256;2023-04-26T13:16:55;94105.13;;;13.85;43.52